createdAt,value
2023-02-24T00:02:39.475Z,8.80
2023-02-24T00:07:40.837Z,8.82
2023-02-24T00:12:43.690Z,8.77
2023-02-24T00:17:45.453Z,8.58
2023-02-24T00:22:46.924Z,8.60
2023-02-24T00:27:48.455Z,8.47
2023-02-24T00:32:50.102Z,8.73
2023-02-24T00:37:54.296Z,8.43
2023-02-24T00:42:56.020Z,8.61
2023-02-24T00:47:57.565Z,8.54
2023-02-24T00:52:58.917Z,8.48
2023-02-24T00:58:00.341Z,8.59
2023-02-24T01:03:02.304Z,8.31
2023-02-24T01:08:04.689Z,8.39
2023-02-24T01:13:06.166Z,8.42
2023-02-24T01:18:10.980Z,8.21
2023-02-24T01:23:12.400Z,8.14
2023-02-24T01:28:13.885Z,8.21
2023-02-24T01:33:15.330Z,8.34
2023-02-24T01:38:23.021Z,8.20
2023-02-24T01:43:25.105Z,8.03
2023-02-24T01:48:27.746Z,7.99
2023-02-24T01:53:29.282Z,8.13
2023-02-24T01:58:33.569Z,8.09
2023-02-24T02:03:37.960Z,8.10
2023-02-24T02:08:42.028Z,8.01
2023-02-24T02:13:45.500Z,7.90
2023-02-24T02:19:14.413Z,7.95
2023-02-24T02:24:43.870Z,8.01
2023-02-24T02:30:13.761Z,7.81
2023-02-24T02:35:31.515Z,7.58
2023-02-24T02:41:07.471Z,7.13
2023-02-24T02:46:17.532Z,6.80
2023-02-24T02:51:25.945Z,6.72
2023-02-24T02:56:52.751Z,6.68
2023-02-24T03:02:01.138Z,6.66
2023-02-24T03:07:04.763Z,6.48
2023-02-24T03:12:11.499Z,6.45
2023-02-24T03:17:21.598Z,6.48
2023-02-24T03:22:34.932Z,6.59
2023-02-24T03:28:02.643Z,6.46
2023-02-24T03:33:16.690Z,6.73
2023-02-24T03:38:23.222Z,6.42
2023-02-24T03:43:33.723Z,6.53
2023-02-24T03:48:44.761Z,6.59
2023-02-24T03:54:23.044Z,6.73
2023-02-24T03:59:57.320Z,6.72
2023-02-24T04:05:09.746Z,6.98
2023-02-24T04:10:52.345Z,6.94
2023-02-24T04:16:08.897Z,6.93
2023-02-24T04:21:10.821Z,7.00
2023-02-24T04:26:16.596Z,6.87
2023-02-24T04:31:22.096Z,7.06
2023-02-24T04:36:24.983Z,7.02
2023-02-24T04:41:26.934Z,7.03
2023-02-24T04:46:32.281Z,6.83
2023-02-24T04:51:33.980Z,7.03
2023-02-24T04:56:37.046Z,6.85
2023-02-24T05:01:39.799Z,6.63
2023-02-24T05:06:44.046Z,6.72
2023-02-24T05:11:48.860Z,6.18
2023-02-24T05:16:51.029Z,6.07
2023-02-24T05:21:52.465Z,6.19
2023-02-24T05:26:59.888Z,6.11
2023-02-24T05:32:02.451Z,6.01
2023-02-24T05:37:10.272Z,5.75
2023-02-24T05:42:11.736Z,5.47
2023-02-24T05:47:13.192Z,5.16
2023-02-24T05:52:14.631Z,4.59
2023-02-24T05:57:21.054Z,4.48
2023-02-24T06:02:27.396Z,4.28
2023-02-24T06:07:34.565Z,4.23
2023-02-24T06:12:39.764Z,4.26
2023-02-24T06:17:41.328Z,4.44
2023-02-24T06:22:42.761Z,4.42
2023-02-24T06:27:44.220Z,4.80
2023-02-24T06:32:45.813Z,4.90
2023-02-24T06:37:47.974Z,5.13
2023-02-24T06:42:54.014Z,5.20
2023-02-24T06:47:55.730Z,4.84
2023-02-24T06:53:00.646Z,4.74
2023-02-24T06:58:05.211Z,4.08
2023-02-24T07:03:17.205Z,4.47
2023-02-24T07:08:23.232Z,4.13
2023-02-24T07:13:25.861Z,4.76
2023-02-24T07:18:27.294Z,4.07
2023-02-24T07:23:29.329Z,4.68
2023-02-24T07:28:30.787Z,4.67
2023-02-24T07:33:34.231Z,5.05
2023-02-24T07:38:37.353Z,4.87
2023-02-24T07:43:40.983Z,4.67
2023-02-24T07:48:42.929Z,4.88
2023-02-24T07:53:47.800Z,5.19
2023-02-24T07:58:57.688Z,5.82
2023-02-24T08:04:03.284Z,5.25
2023-02-24T08:09:19.378Z,5.06
2023-02-24T08:14:39.046Z,4.68
2023-02-24T08:19:47.114Z,4.69
2023-02-24T08:24:54.833Z,4.98
2023-02-24T08:30:01.455Z,4.66
2023-02-24T08:35:15.186Z,5.25
2023-02-24T08:40:32.055Z,4.93
2023-02-24T08:45:33.573Z,4.98
2023-02-24T08:50:38.363Z,4.89
2023-02-24T08:55:39.904Z,5.11
2023-02-24T09:00:50.512Z,5.24
2023-02-24T09:05:54.652Z,4.74
2023-02-24T09:10:56.259Z,4.74
2023-02-24T09:15:57.915Z,4.70
2023-02-24T09:21:18.660Z,4.63
2023-02-24T09:26:20.869Z,5.01
2023-02-24T09:31:40.440Z,4.84
2023-02-24T09:37:02.133Z,5.03
2023-02-24T09:42:09.816Z,4.68
2023-02-24T09:47:51.190Z,5.17
2023-02-24T09:53:11.221Z,5.35
2023-02-24T09:58:49.486Z,5.43
2023-02-24T10:04:21.832Z,5.46
2023-02-24T10:09:34.877Z,5.51
2023-02-24T10:15:00.102Z,5.80
2023-02-24T10:20:39.467Z,5.88
2023-02-24T10:25:53.801Z,6.11
2023-02-24T10:31:24.814Z,6.35
2023-02-24T10:36:35.375Z,6.14
2023-02-24T10:41:47.026Z,6.28
2023-02-24T10:47:11.205Z,6.25
2023-02-24T10:52:33.520Z,6.19
2023-02-24T10:57:58.636Z,6.19
2023-02-24T11:03:22.192Z,5.85
2023-02-24T11:08:44.269Z,6.28
2023-02-24T11:14:09.330Z,6.67
2023-02-24T11:19:11.069Z,6.74
2023-02-24T11:24:18.895Z,6.93
2023-02-24T11:29:37.034Z,7.09
2023-02-24T11:35:23.162Z,6.81
2023-02-24T11:40:28.477Z,6.66
2023-02-24T11:45:50.779Z,6.94
2023-02-24T11:50:59.601Z,6.79
2023-02-24T11:56:05.172Z,7.03
2023-02-24T12:01:10.408Z,6.80
2023-02-24T12:06:25.712Z,6.82
2023-02-24T12:11:39.082Z,6.83
2023-02-24T12:16:46.053Z,6.79
2023-02-24T12:21:53.154Z,7.01
2023-02-24T12:27:18.352Z,7.16
2023-02-24T12:32:47.841Z,7.05
2023-02-24T12:38:28.477Z,7.38
2023-02-24T12:43:38.712Z,7.40
2023-02-24T12:49:10.435Z,7.57
2023-02-24T12:54:38.283Z,7.66
2023-02-24T12:59:41.192Z,7.45
2023-02-24T13:05:14.977Z,7.47
2023-02-24T13:10:38.376Z,7.31
2023-02-24T13:15:53.498Z,7.28
2023-02-24T13:21:04.027Z,7.17
2023-02-24T13:26:05.487Z,7.56
2023-02-24T13:31:13.527Z,7.54
2023-02-24T13:36:24.020Z,7.30
2023-02-24T13:41:28.414Z,7.20
2023-02-24T13:47:06.708Z,7.32
2023-02-24T13:52:16.290Z,7.37
2023-02-24T13:57:51.995Z,7.31
2023-02-24T14:02:54.141Z,7.27
2023-02-24T14:07:56.711Z,7.06
2023-02-24T14:13:06.422Z,7.22
2023-02-24T14:18:22.238Z,7.10
2023-02-24T14:23:28.551Z,7.05
2023-02-24T14:28:35.935Z,7.23
2023-02-24T14:33:39.897Z,7.03
2023-02-24T14:38:43.702Z,7.05
2023-02-24T14:43:45.167Z,7.31
2023-02-24T14:48:53.388Z,7.28
2023-02-24T14:53:58.577Z,6.82
2023-02-24T14:59:12.344Z,7.28
2023-02-24T15:04:30.532Z,6.87
2023-02-24T15:09:40.915Z,7.24
2023-02-24T15:14:48.933Z,6.90
2023-02-24T15:19:54.548Z,6.96
2023-02-24T15:25:37.122Z,6.69
2023-02-24T15:30:58.697Z,6.46
2023-02-24T15:36:00.968Z,6.57
2023-02-24T15:41:05.141Z,6.70
2023-02-24T15:46:30.899Z,6.47
2023-02-24T15:51:45.356Z,6.14
2023-02-24T15:56:48.752Z,6.05
2023-02-24T16:01:52.128Z,6.43
2023-02-24T16:06:56.520Z,6.43
2023-02-24T16:11:59.118Z,6.23
2023-02-24T16:17:07.023Z,5.39
2023-02-24T16:22:10.246Z,5.96
2023-02-24T16:27:16.598Z,5.52
2023-02-24T16:32:18.256Z,5.44
2023-02-24T16:37:27.110Z,5.34
2023-02-24T16:42:29.102Z,5.56
2023-02-24T16:47:34.159Z,5.62
2023-02-24T16:52:35.614Z,5.73
2023-02-24T16:57:37.111Z,5.56
2023-02-24T17:02:40.210Z,5.47
2023-02-24T17:07:41.658Z,5.42
2023-02-24T17:12:43.484Z,5.62
2023-02-24T17:17:59.970Z,5.23
2023-02-24T17:23:01.696Z,5.18
2023-02-24T17:28:05.973Z,5.56
2023-02-24T17:33:07.786Z,5.35
2023-02-24T17:38:13.768Z,4.78
2023-02-24T17:43:15.344Z,5.01
2023-02-24T17:48:16.836Z,5.03
2023-02-24T17:53:18.280Z,4.95
2023-02-24T17:58:19.716Z,4.79
2023-02-24T18:03:21.181Z,4.78
2023-02-24T18:08:22.621Z,5.08
2023-02-24T18:13:24.278Z,4.74
2023-02-24T18:18:27.674Z,4.69
2023-02-24T18:23:29.529Z,4.36
2023-02-24T18:28:31.167Z,4.77
2023-02-24T18:33:32.736Z,4.31
2023-02-24T18:38:34.318Z,4.09
2023-02-24T18:43:36.974Z,4.48
2023-02-24T18:48:40.116Z,4.54
2023-02-24T18:53:41.586Z,4.39
2023-02-24T18:58:45.539Z,4.14
2023-02-24T19:03:48.686Z,3.95
2023-02-24T19:08:56.579Z,3.82
2023-02-24T19:13:58.792Z,4.03
2023-02-24T19:19:00.819Z,3.77
2023-02-24T19:24:03.767Z,4.11
2023-02-24T19:29:05.344Z,3.84
2023-02-24T19:34:13.603Z,3.50
2023-02-24T19:39:16.940Z,3.47
2023-02-24T19:44:18.407Z,3.73
2023-02-24T19:49:19.833Z,3.54
2023-02-24T19:54:22.705Z,3.37
2023-02-24T19:59:24.336Z,3.48
2023-02-24T20:04:25.821Z,3.51
2023-02-24T20:09:27.324Z,3.60
2023-02-24T20:14:29.723Z,3.71
2023-02-24T20:19:33.107Z,3.72
2023-02-24T20:24:35.205Z,4.15
2023-02-24T20:29:36.686Z,3.61
2023-02-24T20:34:38.696Z,4.12
2023-02-24T20:39:40.062Z,3.98
2023-02-24T20:44:41.469Z,4.13
2023-02-24T20:49:42.901Z,3.89
2023-02-24T20:54:45.722Z,4.08
2023-02-24T21:00:01.559Z,4.05
2023-02-24T21:05:04.659Z,4.15
2023-02-24T21:10:06.570Z,3.96
2023-02-24T21:15:08.944Z,4.09
2023-02-24T21:20:11.211Z,4.10
2023-02-24T21:25:12.656Z,4.17
2023-02-24T21:30:14.228Z,4.11
2023-02-24T21:35:15.666Z,4.07
2023-02-24T21:40:17.642Z,4.33
2023-02-24T21:45:19.281Z,4.28
2023-02-24T21:50:21.701Z,4.10
2023-02-24T21:55:23.354Z,4.25
2023-02-24T22:00:25.010Z,4.07
2023-02-24T22:05:27.002Z,4.13
2023-02-24T22:10:28.358Z,4.18
2023-02-24T22:15:29.795Z,4.20
2023-02-24T22:20:31.231Z,4.19
2023-02-24T22:25:35.213Z,4.38
2023-02-24T22:30:36.680Z,3.99
2023-02-24T22:35:38.129Z,3.99
2023-02-24T22:40:39.654Z,4.25
2023-02-24T22:45:41.061Z,4.22
2023-02-24T22:50:42.987Z,4.16
2023-02-24T22:55:48.935Z,4.00
2023-02-24T23:00:51.513Z,3.95
2023-02-24T23:05:57.910Z,4.11
2023-02-24T23:11:04.676Z,4.11
2023-02-24T23:16:08.137Z,4.09
2023-02-24T23:21:10.090Z,4.03
2023-02-24T23:26:11.764Z,3.90
2023-02-24T23:31:18.777Z,3.96
2023-02-24T23:36:22.282Z,4.10
2023-02-24T23:41:23.911Z,3.77
2023-02-24T23:46:25.836Z,3.85
2023-02-24T23:51:35.773Z,3.74
2023-02-24T23:56:43.569Z,3.68
